Airfield :
LOGIN :

Register | Disclaimer

   EN    FR    IT 

 










Legend :    VFR   Marginal VFR   IFR   Intensive IFR   Very Intensive IFR
Visi :
Ceiling :
>= 8 km
>= 3000ft
5 to 8 km
1000 to 3000 ft
1500m to 5 km
500 to 1000 ft
800 to 1500m
200 to 500 ft
< 800m
< 200 ft
Symbols :   Thunderstorms  Fog  Heavy snow  Heavy precipitations  Wind > 20 kt
SIGMETs :     Misc.  Thunderstorms  Icing  Turbulence  Mountain Waves  Volcanic Ashes






- Airport Elevation : 13 ft
- IATA code : OST


EBOS - Oostend bruges Int.

CURRENT METAR :
  • 201350Z 18011KT 150V210 CAVOK 14/11 Q1006 NOSIG

EXPIRED METARs :
  • 201320Z 18011KT 160V220 CAVOK 14/11 Q1006 NOSIG
  • 201250Z 18010KT CAVOK 14/11 Q1006 NOSIG
  • 201220Z 18011KT CAVOK 14/11 Q1006 NOSIG
  • 201150Z 19010KT 150V210 CAVOK 14/11 Q1006 NOSIG
  • 201120Z 19011KT CAVOK 14/10 Q1006 NOSIG
  • 201050Z 19013KT CAVOK 14/10 Q1006 NOSIG

TAF TAF EBOS
Valid from the 20 at 12:00 until the 21 at 18:00 UTC


201110Z 2012/2118 18014KT 9999 -RA SCT040
PROB30 2012/2018 20015G25KT 4000 RA BKN012
PROB40
TEMPO 2018/2021 BKN008
TEMPO 2021/2106 4000 RA BKN008
BECMG 2106/2109 19018G28KT
TEMPO 2111/2117 21024G40KT
PROB30
TEMPO 2112/2118 4000 SHRA BKN014CB



MET'MAP, your aeronautical weather chart ! - Copyright ORBIFLY December 2007 - Disclaimer

ORBIFLY MET'MAP TEAM :

Programming & Development : Alexandra Zaïnal
Concept & original design : Baudouin d'Aumeries
Assistance for programming : Marc-Olivier Méhu
Technical & hardware support : Manuel Goepfert

Contact : metmap@orbifly.com




SOURCES & CREDITS :

   NOAA